Time;durP1;ratioP1;P1;durP2;ratioP2;P2;SDS_P1;SDS_P2;PMS_P1;PMS_P2;Temp;Humidity;BMP_temperature;BMP_pressure;BME280_temperature;BME280_humidity;BME280_pressure;Samples;Min_cycle;Max_cycle;Signal;HPM_P1;HPM_P2
2024/01/23 00:02:01;;;;;;;4.03;1.60;;;9.70;78.60;;;;;;5033147;28;20029;-74
2024/01/23 00:04:27;;;;;;;7.13;1.77;;;9.70;78.40;;;;;;5029850;28;20036;-74
2024/01/23 00:06:53;;;;;;;7.18;2.33;;;9.70;78.60;;;;;;5027656;28;20412;-74
2024/01/23 00:09:19;;;;;;;13.52;2.72;;;9.70;78.00;;;;;;5029421;28;20112;-73
2024/01/23 00:11:44;;;;;;;6.35;1.33;;;9.70;77.90;;;;;;5032485;28;20449;-74
2024/01/23 00:14:10;;;;;;;6.90;1.60;;;9.70;77.80;;;;;;5033118;28;20366;-74
2024/01/23 00:16:36;;;;;;;5.10;1.38;;;9.60;77.70;;;;;;5032195;28;20041;-73
2024/01/23 00:19:02;;;;;;;3.78;1.92;;;9.60;77.50;;;;;;5034047;28;20037;-74
2024/01/23 00:21:28;;;;;;;5.78;1.73;;;9.60;77.50;;;;;;5036775;28;20053;-74
2024/01/23 00:23:54;;;;;;;9.40;2.20;;;9.60;77.60;;;;;;5030534;28;20392;-73
2024/01/23 00:26:20;;;;;;;4.05;2.20;;;9.60;77.60;;;;;;5038599;28;20029;-74
2024/01/23 00:28:46;;;;;;;3.25;1.67;;;9.60;77.70;;;;;;5034369;28;20366;-69
2024/01/23 00:31:11;;;;;;;10.10;1.48;;;9.60;77.80;;;;;;5039801;28;20028;-69
2024/01/23 00:33:37;;;;;;;3.08;1.35;;;9.60;77.90;;;;;;5039277;28;20386;-69
2024/01/23 00:36:04;;;;;;;6.57;1.65;;;9.50;77.90;;;;;;5034009;28;20112;-74
2024/01/23 00:38:29;;;;;;;5.97;1.35;;;9.60;78.00;;;;;;5037824;28;20388;-74
2024/01/23 00:40:55;;;;;;;8.00;2.13;;;9.60;78.10;;;;;;5041326;28;20028;-74
2024/01/23 00:43:21;;;;;;;5.03;1.77;;;9.60;78.10;;;;;;5038616;28;20033;-74
2024/01/23 00:45:47;;;;;;;1.42;1.00;;;9.50;78.20;;;;;;5029000;28;20100;-69
2024/01/23 00:48:13;;;;;;;4.80;1.20;;;9.50;78.20;;;;;;5038200;28;20495;-70
2024/01/23 00:50:38;;;;;;;3.17;1.10;;;9.50;78.20;;;;;;5036921;28;20126;-69
2024/01/23 00:53:04;;;;;;;10.85;2.03;;;9.50;78.20;;;;;;5041325;28;20029;-69
2024/01/23 00:55:30;;;;;;;10.13;1.40;;;9.50;78.00;;;;;;5040075;28;20041;-69
2024/01/23 00:57:55;;;;;;;5.00;1.83;;;9.50;78.00;;;;;;5032489;28;20037;-69
2024/01/23 01:00:21;;;;;;;5.28;1.83;;;9.50;78.10;;;;;;5043931;28;20025;-70
2024/01/23 01:02:47;;;;;;;1.88;1.30;;;9.50;78.10;;;;;;5041183;28;20025;-70
2024/01/23 01:05:13;;;;;;;5.53;1.83;;;9.50;78.10;;;;;;5045697;28;20029;-70
2024/01/23 01:07:39;;;;;;;4.95;1.30;;;9.60;78.00;;;;;;5032264;28;20053;-69
2024/01/23 01:10:05;;;;;;;5.35;2.13;;;9.60;78.00;;;;;;5035650;28;20052;-69
2024/01/23 01:12:33;;;;;;;5.15;1.75;;;9.50;77.90;;;;;;5034004;28;20038;-69
2024/01/23 01:15:00;;;;;;;6.95;1.20;;;9.50;77.90;;;;;;5041187;28;20029;-69
2024/01/23 01:17:26;;;;;;;4.85;1.75;;;9.50;77.90;;;;;;5043394;28;20396;-69
2024/01/23 01:19:52;;;;;;;5.20;1.50;;;9.60;77.70;;;;;;5030348;28;20035;-74
2024/01/23 01:22:18;;;;;;;7.07;2.03;;;9.60;77.70;;;;;;5040746;28;20479;-74
2024/01/23 01:24:44;;;;;;;9.60;2.75;;;9.60;77.60;;;;;;5026270;28;20030;-74
2024/01/23 01:27:10;;;;;;;9.10;2.78;;;9.60;77.70;;;;;;5035284;28;20388;-73
2024/01/23 01:29:36;;;;;;;6.85;1.73;;;9.60;77.70;;;;;;5035418;28;20034;-74
2024/01/23 01:32:02;;;;;;;4.35;1.02;;;9.60;77.50;;;;;;5034273;28;20030;-74
2024/01/23 01:34:28;;;;;;;4.35;1.40;;;9.60;77.70;;;;;;5035080;28;20397;-74
2024/01/23 01:36:54;;;;;;;6.85;2.10;;;9.60;77.60;;;;;;5036271;28;20397;-70
2024/01/23 01:39:20;;;;;;;3.17;1.58;;;9.60;77.40;;;;;;5038029;28;20097;-71
2024/01/23 01:41:55;;;;;;;6.10;1.15;;;9.50;77.20;;;;;;5035045;28;20107;-70
2024/01/23 01:44:21;;;;;;;5.63;2.10;;;9.50;77.30;;;;;;5014748;28;20029;-69
2024/01/23 01:46:48;;;;;;;7.70;1.83;;;9.40;77.40;;;;;;5035629;28;20025;-69
2024/01/23 01:49:15;;;;;;;2.75;1.52;;;9.40;77.30;;;;;;5032909;28;20103;-69
2024/01/23 01:51:43;;;;;;;9.43;1.38;;;9.40;77.30;;;;;;5037065;28;20025;-69
2024/01/23 01:54:09;;;;;;;17.42;2.03;;;9.30;77.20;;;;;;5033295;28;20032;-69
2024/01/23 01:56:35;;;;;;;8.02;2.50;;;9.30;76.90;;;;;;5024856;28;20034;-70
2024/01/23 01:59:01;;;;;;;2.95;1.55;;;9.20;76.60;;;;;;5029469;28;20037;-69
2024/01/23 02:01:27;;;;;;;21.27;2.03;;;9.20;76.60;;;;;;5031716;28;20124;-69
2024/01/23 02:03:56;;;;;;;6.32;2.15;;;9.20;76.50;;;;;;5031469;28;20028;-70
2024/01/23 02:06:23;;;;;;;6.60;1.95;;;9.20;76.10;;;;;;5029344;28;20034;-70
2024/01/23 02:08:50;;;;;;;6.97;1.23;;;9.10;75.80;;;;;;5034487;28;20026;-70
2024/01/23 02:11:16;;;;;;;6.93;2.10;;;9.10;75.70;;;;;;5034703;28;20052;-69
2024/01/23 02:13:42;;;;;;;2.30;1.58;;;9.10;75.70;;;;;;5041397;28;20507;-71
2024/01/23 02:16:09;;;;;;;4.80;1.75;;;9.10;75.70;;;;;;5022242;28;20036;-69
2024/01/23 02:18:34;;;;;;;5.88;1.98;;;9.10;75.40;;;;;;5034444;28;20391;-70
2024/01/23 02:21:00;;;;;;;5.93;2.75;;;9.10;75.50;;;;;;5026808;28;20037;-69
2024/01/23 02:23:32;;;;;;;5.38;1.95;;;9.10;75.50;;;;;;5037141;28;20037;-70
2024/01/23 02:25:58;;;;;;;14.27;2.75;;;9.10;75.50;;;;;;5038523;28;20105;-70
2024/01/23 02:28:24;;;;;;;4.32;2.08;;;9.10;75.90;;;;;;5041481;28;20092;-70
2024/01/23 02:30:49;;;;;;;4.53;1.50;;;9.00;75.20;;;;;;5067631;28;20030;-74
2024/01/23 02:33:15;;;;;;;8.32;0.88;;;9.00;75.10;;;;;;5039601;28;20048;-74
2024/01/23 02:35:41;;;;;;;3.85;1.30;;;9.00;75.00;;;;;;5038234;28;20397;-70
2024/01/23 02:38:10;;;;;;;5.88;1.30;;;9.00;75.10;;;;;;5039692;28;20534;-70
2024/01/23 02:40:36;;;;;;;5.97;1.85;;;9.00;75.20;;;;;;5035693;28;20049;-74
2024/01/23 02:43:02;;;;;;;5.78;2.08;;;8.90;75.10;;;;;;5035605;28;20036;-74
2024/01/23 02:45:28;;;;;;;5.72;1.40;;;8.90;75.30;;;;;;5041025;28;20385;-74
2024/01/23 02:47:54;;;;;;;10.60;1.58;;;8.90;75.50;;;;;;5040891;28;20095;-74
2024/01/23 02:50:20;;;;;;;6.13;1.83;;;8.90;75.60;;;;;;5033965;28;20492;-74
2024/01/23 02:52:45;;;;;;;4.95;2.33;;;8.90;75.60;;;;;;5022184;28;20432;-74
2024/01/23 02:55:11;;;;;;;3.95;1.45;;;8.80;75.70;;;;;;5032906;28;20055;-74
2024/01/23 02:57:37;;;;;;;13.88;2.40;;;8.90;76.00;;;;;;5032451;28;20033;-74
2024/01/23 03:00:04;;;;;;;4.57;1.73;;;8.80;76.20;;;;;;5036293;28;20559;-74
2024/01/23 03:02:30;;;;;;;15.45;2.83;;;8.80;76.40;;;;;;5035549;28;20132;-74
2024/01/23 03:04:56;;;;;;;6.60;2.63;;;8.80;76.80;;;;;;5035489;28;20029;-74
2024/01/23 03:07:23;;;;;;;5.53;1.90;;;8.80;77.00;;;;;;5029754;28;20029;-74
2024/01/23 03:09:49;;;;;;;9.68;2.10;;;8.80;77.10;;;;;;5032495;28;20063;-74
2024/01/23 03:12:18;;;;;;;7.70;1.90;;;8.90;77.20;;;;;;5027670;28;20437;-74
2024/01/23 03:14:45;;;;;;;8.88;1.85;;;8.90;77.30;;;;;;5032191;28;20029;-74
2024/01/23 03:17:15;;;;;;;5.35;1.75;;;8.90;77.30;;;;;;5033324;28;20045;-74
2024/01/23 03:19:42;;;;;;;8.50;1.67;;;8.90;77.40;;;;;;5030434;28;20075;-74
2024/01/23 03:22:08;;;;;;;7.40;2.20;;;8.90;77.50;;;;;;5028934;28;20052;-74
2024/01/23 03:24:37;;;;;;;10.15;2.85;;;8.90;77.50;;;;;;5032366;28;20412;-74
2024/01/23 03:27:04;;;;;;;3.70;1.27;;;9.00;77.60;;;;;;5063320;28;20097;-74
2024/01/23 03:29:40;;;;;;;3.80;1.48;;;8.90;77.50;;;;;;5030041;28;20551;-74
2024/01/23 03:32:07;;;;;;;7.75;1.98;;;9.00;77.70;;;;;;5030323;28;20075;-74
2024/01/23 03:34:33;;;;;;;5.55;1.95;;;8.90;77.70;;;;;;5027803;28;20051;-72
2024/01/23 03:37:02;;;;;;;9.98;2.42;;;8.90;77.60;;;;;;5027774;28;20026;-71
2024/01/23 03:39:28;;;;;;;4.55;1.48;;;8.90;77.60;;;;;;5027417;28;20045;-74
2024/01/23 03:41:54;;;;;;;8.60;1.80;;;8.90;77.60;;;;;;5029415;28;20476;-74
2024/01/23 03:44:26;;;;;;;9.98;2.97;;;8.90;77.70;;;;;;5028369;28;20056;-74
2024/01/23 03:46:53;;;;;;;9.63;1.83;;;8.80;77.60;;;;;;5030191;28;20060;-71
2024/01/23 03:49:19;;;;;;;4.00;1.85;;;8.80;77.60;;;;;;5039390;28;20033;-74
2024/01/23 03:51:45;;;;;;;11.00;1.83;;;8.80;77.60;;;;;;5038327;28;20091;-71
2024/01/23 03:54:11;;;;;;;5.68;1.35;;;8.80;77.50;;;;;;5033092;28;20034;-74
2024/01/23 03:56:36;;;;;;;7.85;1.50;;;8.80;78.00;;;;;;5036550;28;20026;-74
2024/01/23 03:59:02;;;;;;;14.50;2.15;;;8.80;77.50;;;;;;5042747;28;20033;-74
2024/01/23 04:01:28;;;;;;;3.63;1.73;;;8.80;77.40;;;;;;5048754;28;20033;-74
2024/01/23 04:03:54;;;;;;;4.70;1.15;;;8.80;77.50;;;;;;5042685;28;20049;-70
2024/01/23 04:06:19;;;;;;;10.55;2.08;;;8.80;77.50;;;;;;5039208;28;20480;-74
2024/01/23 04:08:45;;;;;;;7.40;1.90;;;8.80;77.50;;;;;;5040744;28;20388;-74
2024/01/23 04:11:11;;;;;;;3.53;1.88;;;8.90;77.50;;;;;;5036066;28;20025;-74
2024/01/23 04:13:37;;;;;;;23.15;2.53;;;8.90;77.40;;;;;;5031691;28;20029;-70
2024/01/23 04:16:05;;;;;;;10.05;1.85;;;8.90;77.40;;;;;;5034389;28;20469;-74
2024/01/23 04:18:31;;;;;;;8.00;2.28;;;8.90;77.80;;;;;;5032574;28;20029;-74
2024/01/23 04:20:57;;;;;;;9.32;2.60;;;8.90;77.20;;;;;;5035775;28;20044;-70
2024/01/23 04:23:22;;;;;;;2.53;1.02;;;8.90;77.00;;;;;;5062285;28;20037;-74
2024/01/23 04:25:48;;;;;;;5.82;1.60;;;8.90;77.00;;;;;;5032899;28;20376;-69
2024/01/23 04:28:14;;;;;;;6.10;2.33;;;9.00;77.00;;;;;;5033463;28;20025;-70
2024/01/23 04:30:40;;;;;;;2.38;1.30;;;9.00;77.00;;;;;;5034030;28;20112;-74
2024/01/23 04:33:06;;;;;;;11.18;2.28;;;9.00;76.90;;;;;;5036972;28;20034;-74
2024/01/23 04:35:32;;;;;;;5.43;1.30;;;8.90;76.80;;;;;;5034912;28;20032;-70
2024/01/23 04:37:58;;;;;;;7.72;1.77;;;9.00;76.80;;;;;;5036317;28;20029;-74
2024/01/23 04:40:24;;;;;;;4.78;1.27;;;8.90;76.70;;;;;;5032508;28;20500;-74
2024/01/23 04:42:49;;;;;;;2.55;1.40;;;8.90;76.80;;;;;;5036057;28;20029;-74
2024/01/23 04:45:15;;;;;;;9.30;2.95;;;8.90;76.80;;;;;;5036186;28;20017;-74
2024/01/23 04:47:41;;;;;;;6.82;2.85;;;8.90;76.70;;;;;;5038900;28;20118;-73
2024/01/23 04:50:08;;;;;;;10.65;2.40;;;8.90;76.70;;;;;;5032988;28;20049;-73
2024/01/23 04:52:34;;;;;;;4.70;1.30;;;8.90;76.60;;;;;;5032323;28;20499;-74
2024/01/23 04:55:00;;;;;;;5.10;3.05;;;8.90;76.60;;;;;;5041134;28;20375;-69
2024/01/23 04:57:31;;;;;;;8.27;1.85;;;8.90;76.40;;;;;;5033516;28;20109;-70
2024/01/23 05:00:00;;;;;;;5.22;1.42;;;8.90;76.40;;;;;;5036145;28;20096;-74
2024/01/23 05:02:26;;;;;;;4.30;1.20;;;8.90;76.40;;;;;;5034919;28;20695;-74
2024/01/23 05:04:52;;;;;;;6.15;2.22;;;8.90;76.40;;;;;;5034735;28;20022;-74
2024/01/23 05:07:19;;;;;;;3.63;1.48;;;8.90;76.20;;;;;;5039465;28;20037;-74
2024/01/23 05:09:44;;;;;;;9.55;2.40;;;8.90;76.10;;;;;;5030891;28;20465;-74
2024/01/23 05:12:10;;;;;;;3.83;2.22;;;8.90;76.20;;;;;;5039178;28;20096;-74
2024/01/23 05:14:36;;;;;;;1.52;1.10;;;8.90;76.20;;;;;;5036555;28;20044;-74
2024/01/23 05:17:02;;;;;;;4.20;1.50;;;8.90;76.20;;;;;;5037133;28;20056;-74
2024/01/23 05:19:29;;;;;;;15.77;2.95;;;8.90;76.30;;;;;;5034844;28;20103;-74
2024/01/23 05:21:56;;;;;;;4.72;1.17;;;8.90;76.10;;;;;;5032546;28;20044;-74
2024/01/23 05:24:21;;;;;;;11.20;1.90;;;8.90;76.20;;;;;;5034096;28;20487;-74
2024/01/23 05:26:47;;;;;;;6.45;2.00;;;8.80;76.20;;;;;;5031132;28;20087;-74
2024/01/23 05:29:13;;;;;;;9.02;2.40;;;8.80;76.40;;;;;;5035719;28;20473;-73
2024/01/23 05:31:39;;;;;;;9.52;1.90;;;8.80;76.50;;;;;;5031626;28;20362;-70
2024/01/23 05:34:04;;;;;;;7.65;2.50;;;8.80;76.50;;;;;;5034740;28;20480;-74
2024/01/23 05:36:30;;;;;;;2.45;1.63;;;8.80;76.30;;;;;;5038342;28;20042;-74
2024/01/23 05:38:56;;;;;;;8.40;2.40;;;8.80;76.30;;;;;;5038581;28;20025;-70
2024/01/23 05:41:22;;;;;;;4.63;1.10;;;8.80;76.30;;;;;;5030573;28;20034;-70
2024/01/23 05:43:47;;;;;;;3.60;2.00;;;8.80;76.10;;;;;;5039955;28;20041;-70
2024/01/23 05:46:13;;;;;;;6.13;1.08;;;8.80;76.20;;;;;;5034317;28;20040;-69
2024/01/23 05:48:39;;;;;;;8.80;2.38;;;8.80;75.80;;;;;;5032786;28;20029;-70
2024/01/23 05:51:05;;;;;;;6.97;2.22;;;8.80;75.80;;;;;;5034521;28;20072;-74
2024/01/23 05:53:30;;;;;;;3.33;1.02;;;8.80;75.90;;;;;;5030875;28;20176;-74
2024/01/23 05:55:56;;;;;;;3.53;2.15;;;8.80;75.80;;;;;;5029764;28;20026;-74
2024/01/23 05:58:22;;;;;;;7.07;1.55;;;8.90;75.90;;;;;;5032105;28;20388;-74
2024/01/23 06:00:48;;;;;;;3.20;1.40;;;8.80;75.50;;;;;;5036375;28;20048;-75
2024/01/23 06:03:13;;;;;;;6.38;2.17;;;8.90;76.20;;;;;;5029982;28;20546;-69
2024/01/23 06:05:39;;;;;;;3.58;0.80;;;8.80;75.50;;;;;;5070594;28;20025;-69
2024/01/23 06:08:05;;;;;;;2.97;1.35;;;8.80;75.50;;;;;;5037986;28;20029;-70
2024/01/23 06:10:31;;;;;;;3.13;1.15;;;8.80;75.60;;;;;;5031816;28;20096;-74
2024/01/23 06:12:57;;;;;;;13.25;2.90;;;8.80;75.70;;;;;;5066421;28;20517;-74
2024/01/23 06:15:24;;;;;;;5.72;1.98;;;8.80;75.50;;;;;;5038743;28;20396;-70
2024/01/23 06:17:49;;;;;;;4.38;2.40;;;8.80;75.60;;;;;;5033918;28;20026;-74
2024/01/23 06:20:15;;;;;;;2.38;1.08;;;8.70;75.70;;;;;;5028090;28;20030;-74
2024/01/23 06:22:41;;;;;;;6.28;1.70;;;8.70;75.70;;;;;;5034723;28;20045;-69
2024/01/23 06:25:09;;;;;;;2.53;1.42;;;8.70;75.70;;;;;;5028868;28;20388;-69
2024/01/23 06:27:35;;;;;;;4.10;1.10;;;8.70;75.80;;;;;;5025940;28;20029;-74
2024/01/23 06:30:01;;;;;;;4.05;1.10;;;8.60;75.70;;;;;;5031993;28;20033;-70
2024/01/23 06:32:27;;;;;;;5.75;1.67;;;8.60;75.80;;;;;;5031849;28;20044;-69
2024/01/23 06:34:53;;;;;;;4.65;1.58;;;8.60;75.90;;;;;;5034717;28;20408;-69
2024/01/23 06:37:20;;;;;;;8.35;2.05;;;8.60;75.90;;;;;;5035385;28;20041;-69
2024/01/23 06:39:46;;;;;;;7.97;1.70;;;8.50;76.00;;;;;;5034485;28;20116;-69
2024/01/23 06:42:12;;;;;;;4.57;1.70;;;8.50;76.20;;;;;;5063814;28;20041;-70
2024/01/23 06:44:39;;;;;;;6.97;2.00;;;8.40;76.40;;;;;;5062726;28;20021;-74
2024/01/23 06:47:05;;;;;;;4.03;1.48;;;8.40;76.50;;;;;;5029764;28;20358;-74
2024/01/23 06:49:31;;;;;;;8.02;1.65;;;8.30;76.60;;;;;;5028764;28;20060;-74
2024/01/23 06:51:57;;;;;;;4.60;1.38;;;8.30;76.80;;;;;;5028520;28;20036;-74
2024/01/23 06:54:22;;;;;;;7.45;2.08;;;8.20;77.00;;;;;;5030380;28;20429;-74
2024/01/23 06:56:48;;;;;;;7.53;1.48;;;8.10;77.70;;;;;;5027578;28;20488;-74
2024/01/23 06:59:15;;;;;;;5.35;1.48;;;8.10;77.30;;;;;;5013471;28;20021;-69
2024/01/23 07:01:41;;;;;;;3.92;1.55;;;8.10;77.40;;;;;;5046665;28;20040;-70
2024/01/23 07:04:07;;;;;;;5.80;1.83;;;8.10;77.50;;;;;;5031203;28;20108;-74
2024/01/23 07:06:33;;;;;;;3.22;1.50;;;8.00;77.50;;;;;;5029533;28;20022;-66
2024/01/23 07:08:59;;;;;;;6.30;1.90;;;8.00;77.60;;;;;;5032101;28;20037;-67
2024/01/23 07:11:25;;;;;;;3.20;1.67;;;8.00;77.70;;;;;;5032100;28;20512;-67
2024/01/23 07:13:51;;;;;;;2.63;1.05;;;7.90;77.80;;;;;;5067236;28;20025;-67
2024/01/23 07:16:17;;;;;;;4.00;1.85;;;7.90;77.90;;;;;;5030979;28;20029;-67
2024/01/23 07:18:43;;;;;;;5.82;2.33;;;7.90;78.10;;;;;;5030463;28;20384;-67
2024/01/23 07:21:09;;;;;;;6.72;1.50;;;7.90;78.10;;;;;;5030241;28;20038;-70
2024/01/23 07:23:36;;;;;;;3.50;1.88;;;7.90;78.10;;;;;;5031187;28;20082;-67
2024/01/23 07:26:02;;;;;;;7.95;1.80;;;7.80;78.10;;;;;;5029335;28;20025;-68
2024/01/23 07:28:28;;;;;;;4.63;1.10;;;7.80;78.30;;;;;;5038020;28;20495;-67
2024/01/23 07:30:54;;;;;;;4.75;1.85;;;7.70;78.40;;;;;;5031716;28;20110;-67
2024/01/23 07:33:19;;;;;;;5.30;2.03;;;7.80;78.60;;;;;;5028664;28;20389;-72
2024/01/23 07:35:45;;;;;;;5.05;2.05;;;7.70;78.60;;;;;;5034769;28;20045;-72
2024/01/23 07:38:11;;;;;;;19.30;3.17;;;7.70;78.70;;;;;;5037327;28;20047;-72
2024/01/23 07:40:42;;;;;;;8.00;2.78;;;7.70;78.80;;;;;;5034761;28;20045;-72
2024/01/23 07:43:08;;;;;;;5.25;1.65;;;7.70;78.90;;;;;;5034293;28;20025;-72
2024/01/23 07:45:33;;;;;;;5.55;1.40;;;7.60;79.00;;;;;;5032120;28;20041;-72
2024/01/23 07:47:59;;;;;;;5.53;1.60;;;7.70;79.00;;;;;;5031119;28;20025;-67
2024/01/23 07:50:27;;;;;;;5.25;2.45;;;7.70;78.90;;;;;;5032445;28;20391;-72
2024/01/23 07:52:53;;;;;;;3.60;2.05;;;7.60;79.00;;;;;;5037931;28;20045;-72
2024/01/23 07:55:19;;;;;;;4.95;1.42;;;7.60;79.30;;;;;;5032148;28;20499;-72
2024/01/23 07:57:44;;;;;;;5.47;2.13;;;7.60;79.40;;;;;;5031396;28;20021;-72
2024/01/23 08:00:12;;;;;;;4.80;1.55;;;7.60;79.50;;;;;;5031812;28;20021;-66
2024/01/23 08:02:38;;;;;;;8.00;1.33;;;7.50;79.50;;;;;;5034535;28;20034;-67
2024/01/23 08:05:03;;;;;;;7.55;2.50;;;7.60;79.60;;;;;;5030396;28;20025;-72
2024/01/23 08:07:29;;;;;;;3.22;1.63;;;7.60;79.80;;;;;;5030470;28;20113;-72
2024/01/23 08:09:55;;;;;;;10.10;3.22;;;7.60;79.90;;;;;;5074859;28;20028;-72
2024/01/23 08:12:20;;;;;;;7.28;2.60;;;7.50;80.10;;;;;;5027876;28;20048;-72
2024/01/23 08:14:46;;;;;;;4.15;1.63;;;7.50;80.20;;;;;;5031752;28;20139;-72
2024/01/23 08:17:12;;;;;;;4.88;1.30;;;7.50;80.30;;;;;;5037707;28;20025;-72
2024/01/23 08:19:40;;;;;;;5.15;2.20;;;7.50;80.50;;;;;;5036736;28;20515;-72
2024/01/23 08:22:06;;;;;;;2.08;1.08;;;7.50;80.50;;;;;;5032180;28;20072;-72
2024/01/23 08:24:32;;;;;;;4.50;1.75;;;7.50;80.40;;;;;;5038707;28;20040;-72
2024/01/23 08:26:58;;;;;;;11.38;2.15;;;7.50;80.30;;;;;;5054635;28;20496;-68
2024/01/23 08:29:23;;;;;;;3.05;1.42;;;7.50;80.40;;;;;;5041056;28;20037;-68
2024/01/23 08:31:49;;;;;;;4.20;2.17;;;7.60;80.40;;;;;;5034331;28;20374;-66
2024/01/23 08:34:15;;;;;;;10.45;2.58;;;7.60;80.50;;;;;;5041206;28;20047;-66
2024/01/23 08:36:41;;;;;;;8.23;3.28;;;7.60;80.60;;;;;;5036125;28;20034;-71
2024/01/23 08:39:07;;;;;;;5.13;2.33;;;7.60;80.70;;;;;;5037351;28;20495;-65
2024/01/23 08:41:33;;;;;;;2.97;1.67;;;7.60;80.60;;;;;;5040033;28;20037;-65
2024/01/23 08:43:59;;;;;;;4.22;1.85;;;7.70;80.70;;;;;;5039091;28;20025;-65
2024/01/23 08:46:25;;;;;;;10.25;2.25;;;7.70;80.60;;;;;;5033603;28;20037;-65
2024/01/23 08:48:50;;;;;;;8.63;2.80;;;7.70;80.60;;;;;;5037116;28;20034;-64
2024/01/23 08:51:17;;;;;;;10.68;2.55;;;7.70;80.50;;;;;;5032194;28;20079;-67
2024/01/23 08:53:42;;;;;;;5.88;1.25;;;7.80;80.50;;;;;;5015923;28;20413;-68
2024/01/23 08:56:08;;;;;;;2.50;1.35;;;7.80;80.50;;;;;;5025334;28;20030;-63
2024/01/23 08:58:34;;;;;;;7.20;1.58;;;7.80;80.30;;;;;;5027644;28;20124;-64
2024/01/23 09:00:59;;;;;;;7.50;2.40;;;7.90;80.20;;;;;;5021267;28;20041;-73
2024/01/23 09:03:25;;;;;;;7.75;1.92;;;7.90;80.20;;;;;;5023491;28;20446;-68
2024/01/23 09:05:51;;;;;;;10.05;2.95;;;7.90;80.30;;;;;;5029423;28;20021;-64
2024/01/23 09:08:17;;;;;;;7.85;2.78;;;7.90;80.30;;;;;;5032498;28;20026;-72
2024/01/23 09:10:43;;;;;;;6.57;2.63;;;7.90;80.40;;;;;;5032061;28;20033;-72
2024/01/23 09:13:08;;;;;;;6.93;2.63;;;7.90;80.40;;;;;;5033308;28;20033;-72
2024/01/23 09:15:35;;;;;;;6.80;2.80;;;8.00;80.30;;;;;;5033621;28;20052;-72
2024/01/23 09:18:01;;;;;;;10.82;2.17;;;8.00;80.30;;;;;;5027003;28;20079;-73
2024/01/23 09:20:27;;;;;;;5.53;1.90;;;8.00;80.20;;;;;;5029795;28;20548;-72
2024/01/23 09:22:53;;;;;;;7.53;3.20;;;8.10;80.30;;;;;;5061387;28;20041;-72
2024/01/23 09:25:18;;;;;;;6.53;1.80;;;8.10;80.20;;;;;;5030230;28;20076;-72
2024/01/23 09:27:44;;;;;;;9.80;3.03;;;8.20;80.10;;;;;;5031580;28;20049;-72
2024/01/23 09:30:11;;;;;;;6.07;1.95;;;8.20;80.00;;;;;;5022048;28;20056;-72
2024/01/23 09:32:37;;;;;;;6.60;1.52;;;8.30;80.00;;;;;;5025453;28;20505;-70
2024/01/23 09:35:02;;;;;;;3.30;2.00;;;8.30;79.80;;;;;;5029118;28;20026;-67
2024/01/23 09:37:28;;;;;;;10.07;1.90;;;8.30;79.80;;;;;;5029302;28;20049;-72
2024/01/23 09:39:54;;;;;;;16.05;3.13;;;8.40;79.70;;;;;;5022796;28;20497;-71
2024/01/23 09:42:23;;;;;;;5.35;2.15;;;8.50;79.60;;;;;;5019841;28;20545;-71
2024/01/23 09:44:52;;;;;;;9.40;3.75;;;8.60;79.40;;;;;;5020845;28;20030;-71
2024/01/23 09:47:19;;;;;;;12.35;2.95;;;8.70;79.10;;;;;;5024476;28;20021;-71
2024/01/23 09:49:45;;;;;;;12.98;2.45;;;8.80;79.00;;;;;;5021030;28;20025;-72
2024/01/23 09:52:12;;;;;;;2.90;1.75;;;9.00;78.60;;;;;;5022645;28;20052;-66
2024/01/23 09:54:37;;;;;;;11.68;2.42;;;9.10;78.30;;;;;;5020074;28;20408;-67
2024/01/23 09:57:03;;;;;;;11.35;3.03;;;9.20;77.80;;;;;;5020258;28;20033;-66
2024/01/23 09:59:29;;;;;;;6.38;2.40;;;9.30;77.20;;;;;;5024922;28;20041;-64
2024/01/23 10:01:56;;;;;;;7.95;2.20;;;9.30;76.90;;;;;;5032723;28;20076;-68
2024/01/23 10:04:22;;;;;;;5.05;1.33;;;9.40;76.80;;;;;;5036305;28;20021;-67
2024/01/23 10:06:48;;;;;;;13.07;2.55;;;9.50;76.90;;;;;;5032123;28;20535;-64
2024/01/23 10:09:14;;;;;;;10.63;2.00;;;9.60;76.30;;;;;;5027578;28;20030;-64
2024/01/23 10:11:41;;;;;;;11.27;3.03;;;9.70;75.90;;;;;;5024641;28;20086;-65
2024/01/23 10:14:07;;;;;;;12.25;2.63;;;9.80;75.80;;;;;;5031851;28;20025;-65
2024/01/23 10:16:33;;;;;;;11.50;2.55;;;9.80;75.60;;;;;;5039534;28;20039;-64
2024/01/23 10:18:59;;;;;;;9.10;1.50;;;9.90;75.40;;;;;;5023245;28;20029;-64
2024/01/23 10:21:25;;;;;;;3.97;1.77;;;10.00;75.20;;;;;;5028600;28;20555;-64
2024/01/23 10:23:51;;;;;;;5.45;2.53;;;10.00;75.30;;;;;;5028607;28;20069;-64
2024/01/23 10:26:18;;;;;;;9.95;2.88;;;10.10;75.20;;;;;;5025805;28;20025;-64
2024/01/23 10:28:45;;;;;;;9.60;3.35;;;10.20;74.80;;;;;;5032409;28;20037;-65
2024/01/23 10:31:11;;;;;;;14.10;3.13;;;10.20;74.50;;;;;;5034028;28;20056;-66
2024/01/23 10:33:37;;;;;;;11.40;3.47;;;10.20;74.10;;;;;;5034939;28;20061;-66
2024/01/23 10:36:05;;;;;;;10.77;2.40;;;10.20;74.20;;;;;;5031354;28;20389;-67
2024/01/23 10:38:31;;;;;;;7.28;1.85;;;10.30;74.60;;;;;;5032552;28;20076;-72
2024/01/23 10:40:59;;;;;;;5.20;1.45;;;10.50;74.90;;;;;;5033378;28;20033;-67
2024/01/23 10:43:29;;;;;;;6.28;2.67;;;10.70;74.90;;;;;;5041664;28;20025;-67
2024/01/23 10:45:59;;;;;;;11.73;2.40;;;10.90;73.90;;;;;;5030420;28;20376;-67
2024/01/23 10:48:30;;;;;;;5.57;1.20;;;11.20;73.10;;;;;;5035380;28;20701;-67
2024/01/23 10:51:03;;;;;;;3.97;1.55;;;11.80;71.00;;;;;;5035382;28;20029;-67
2024/01/23 10:53:37;;;;;;;5.05;1.85;;;12.30;67.90;;;;;;5020625;28;20036;-67
2024/01/23 10:56:06;;;;;;;5.25;2.20;;;12.90;67.40;;;;;;5033917;28;20472;-67
2024/01/23 10:58:38;;;;;;;6.63;2.33;;;13.90;64.90;;;;;;5039155;28;20102;-67
2024/01/23 11:01:07;;;;;;;5.43;1.20;;;14.10;62.80;;;;;;5031652;28;20037;-68
2024/01/23 11:03:35;;;;;;;3.35;1.60;;;14.10;62.90;;;;;;5034733;28;20029;-72
2024/01/23 11:06:09;;;;;;;7.20;2.60;;;14.50;62.80;;;;;;5029927;28;20116;-68
2024/01/23 11:08:59;;;;;;;5.60;2.30;;;15.00;60.60;;;;;;5029727;28;20044;-67
2024/01/23 11:11:32;;;;;;;5.30;1.52;;;15.30;59.90;;;;;;5034563;28;20029;-68
2024/01/23 11:14:09;;;;;;;4.30;1.98;;;15.20;59.10;;;;;;5032595;28;20425;-68
2024/01/23 11:16:35;;;;;;;8.25;2.80;;;14.60;60.10;;;;;;5035093;28;20090;-67
2024/01/23 11:19:01;;;;;;;10.88;1.75;;;14.00;61.80;;;;;;5028176;28;20048;-73
2024/01/23 11:21:26;;;;;;;3.10;1.45;;;13.60;63.00;;;;;;5035130;28;20072;-72
2024/01/23 11:24:00;;;;;;;10.27;2.08;;;13.30;63.80;;;;;;5036785;28;20033;-73
2024/01/23 11:26:26;;;;;;;6.85;1.63;;;12.80;64.70;;;;;;5032382;28;20025;-73
2024/01/23 11:28:56;;;;;;;7.88;2.53;;;12.90;65.40;;;;;;5028531;28;20302;-73
2024/01/23 11:31:24;;;;;;;9.68;1.48;;;13.20;64.70;;;;;;5020485;28;20075;-73
2024/01/23 11:33:51;;;;;;;11.85;2.95;;;13.00;64.60;;;;;;5025276;28;20037;-72
2024/01/23 11:36:25;;;;;;;6.05;1.80;;;13.40;64.40;;;;;;5021866;28;20403;-72
2024/01/23 11:38:52;;;;;;;6.15;3.70;;;14.40;62.40;;;;;;5020723;28;20447;-73
2024/01/23 11:41:23;;;;;;;10.90;1.70;;;15.00;60.50;;;;;;5024579;28;20092;-73
2024/01/23 11:44:16;;;;;;;6.38;2.00;;;14.80;60.10;;;;;;5024355;28;20116;-73
2024/01/23 11:46:43;;;;;;;10.48;3.22;;;15.00;59.90;;;;;;5027673;28;20044;-73
2024/01/23 11:49:10;;;;;;;3.55;1.63;;;15.50;59.40;;;;;;5022934;28;20029;-73
2024/01/23 11:51:39;;;;;;;4.57;1.75;;;16.30;58.00;;;;;;5063710;28;20535;-73
2024/01/23 11:54:11;;;;;;;6.45;2.65;;;16.40;57.30;;;;;;5029881;28;20735;-73
2024/01/23 11:56:41;;;;;;;13.98;3.25;;;16.10;56.70;;;;;;5029860;28;20049;-73
2024/01/23 11:59:07;;;;;;;8.85;1.88;;;15.70;57.80;;;;;;5034901;28;20483;-73
2024/01/23 12:01:36;;;;;;;5.57;2.05;;;15.10;58.60;;;;;;5027257;28;20448;-73
2024/01/23 12:04:02;;;;;;;6.82;1.90;;;14.50;59.50;;;;;;5021531;28;20318;-73
2024/01/23 12:06:31;;;;;;;5.93;1.55;;;14.40;60.60;;;;;;5020262;28;20040;-73
2024/01/23 12:08:56;;;;;;;7.20;1.73;;;14.60;60.60;;;;;;5026745;28;20037;-67
2024/01/23 12:11:22;;;;;;;7.55;3.03;;;14.80;59.70;;;;;;5033789;28;20037;-67
2024/01/23 12:13:49;;;;;;;12.50;2.95;;;14.10;59.50;;;;;;5035459;28;20033;-68
2024/01/23 12:16:17;;;;;;;7.75;2.13;;;13.40;61.30;;;;;;5023414;28;20029;-72
2024/01/23 12:18:43;;;;;;;8.65;1.95;;;12.90;63.00;;;;;;5033783;28;20112;-73
2024/01/23 12:21:09;;;;;;;8.23;1.98;;;12.70;64.10;;;;;;5046459;28;20243;-73
2024/01/23 12:23:35;;;;;;;3.78;1.27;;;12.50;64.50;;;;;;5039142;28;20052;-73
2024/01/23 12:26:01;;;;;;;6.25;2.03;;;12.30;64.90;;;;;;5042704;28;20117;-73
2024/01/23 12:28:30;;;;;;;2.88;1.33;;;12.40;65.20;;;;;;5032250;28;20028;-67
2024/01/23 12:30:56;;;;;;;8.10;1.95;;;12.50;64.90;;;;;;5029434;28;20033;-68
2024/01/23 12:33:22;;;;;;;6.07;2.38;;;12.50;64.50;;;;;;5031052;28;20053;-68
2024/01/23 12:35:49;;;;;;;2.42;1.40;;;12.30;64.30;;;;;;5036976;28;20091;-68
2024/01/23 12:38:19;;;;;;;10.23;1.85;;;12.10;65.30;;;;;;5037647;28;20041;-67
2024/01/23 12:40:45;;;;;;;8.68;1.90;;;11.90;65.50;;;;;;5037404;28;20033;-67
2024/01/23 12:43:11;;;;;;;8.07;2.40;;;11.70;65.90;;;;;;5036385;28;20021;-67
2024/01/23 12:45:38;;;;;;;4.00;1.88;;;11.60;66.30;;;;;;5036780;28;20300;-68
2024/01/23 12:48:05;;;;;;;4.22;1.17;;;11.50;66.60;;;;;;5034886;28;20487;-72
2024/01/23 12:50:32;;;;;;;5.32;1.83;;;11.40;66.60;;;;;;5029662;28;20082;-72